sensor_id;sensor_type;location;lat;lon;timestamp;pressure;altitude;pressure_sealevel;temperature;humidity
39075;BME280;24826;52.070;20.970;2022-10-22T00:00:57;61474.22;;;-147.04;100.00
39075;BME280;24826;52.070;20.970;2022-10-22T00:03:41;61484.16;;;-147.04;100.00
39075;BME280;24826;52.070;20.970;2022-10-22T00:06:26;61486.16;;;-147.04;100.00
39075;BME280;24826;52.070;20.970;2022-10-22T00:09:12;61482.19;;;-147.04;100.00
39075;BME280;24826;52.070;20.970;2022-10-22T00:11:56;61458.31;;;-147.04;100.00
39075;BME280;24826;52.070;20.970;2022-10-22T00:14:41;61484.16;;;-147.04;100.00
39075;BME280;24826;52.070;20.970;2022-10-22T00:17:25;61502.06;;;-147.04;100.00
39075;BME280;24826;52.070;20.970;2022-10-22T00:20:10;61496.09;;;-147.04;100.00
39075;BME280;24826;52.070;20.970;2022-10-22T00:22:54;61500.06;;;-147.04;100.00
39075;BME280;24826;52.070;20.970;2022-10-22T00:25:38;61506.03;;;-147.04;100.00
39075;BME280;24826;52.070;20.970;2022-10-22T00:28:23;61498.09;;;-147.04;100.00
39075;BME280;24826;52.070;20.970;2022-10-22T00:31:08;61494.09;;;-147.04;100.00
39075;BME280;24826;52.070;20.970;2022-10-22T00:33:52;61474.22;;;-147.04;100.00
39075;BME280;24826;52.070;20.970;2022-10-22T00:36:37;61510.00;;;-147.04;100.00
39075;BME280;24826;52.070;20.970;2022-10-22T00:39:23;61519.94;;;-147.04;100.00
39075;BME280;24826;52.070;20.970;2022-10-22T00:42:16;61476.22;;;-147.04;100.00
39075;BME280;24826;52.070;20.970;2022-10-22T00:50:57;61478.19;;;-147.04;100.00
39075;BME280;24826;52.070;20.970;2022-10-22T00:53:46;61504.03;;;-147.04;100.00
39075;BME280;24826;52.070;20.970;2022-10-22T00:56:32;61492.13;;;-147.04;100.00
39075;BME280;24826;52.070;20.970;2022-10-22T00:59:17;61508.03;;;-147.04;100.00
39075;BME280;24826;52.070;20.970;2022-10-22T01:02:01;61519.94;;;-147.04;100.00
39075;BME280;24826;52.070;20.970;2022-10-22T01:04:46;61472.22;;;-147.04;100.00
39075;BME280;24826;52.070;20.970;2022-10-22T01:07:30;61512.00;;;-147.04;100.00
39075;BME280;24826;52.070;20.970;2022-10-22T01:13:53;61492.13;;;-147.04;100.00
39075;BME280;24826;52.070;20.970;2022-10-22T01:16:58;61478.19;;;-147.04;100.00
39075;BME280;24826;52.070;20.970;2022-10-22T01:20:12;61515.97;;;-147.04;100.00
39075;BME280;24826;52.070;20.970;2022-10-22T01:29:46;61486.16;;;-147.04;100.00
39075;BME280;24826;52.070;20.970;2022-10-22T01:32:34;61504.03;;;-147.04;100.00
39075;BME280;24826;52.070;20.970;2022-10-22T01:35:24;61482.19;;;-147.04;100.00
39075;BME280;24826;52.070;20.970;2022-10-22T01:38:12;61488.13;;;-147.04;100.00
39075;BME280;24826;52.070;20.970;2022-10-22T01:40:59;61517.97;;;-147.04;100.00
39075;BME280;24826;52.070;20.970;2022-10-22T01:43:43;61523.94;;;-147.04;100.00
39075;BME280;24826;52.070;20.970;2022-10-22T01:46:27;61519.94;;;-147.04;100.00
39075;BME280;24826;52.070;20.970;2022-10-22T01:49:24;61484.16;;;-147.04;100.00
39075;BME280;24826;52.070;20.970;2022-10-22T01:55:35;61541.81;;;-147.04;100.00
39075;BME280;24826;52.070;20.970;2022-10-22T01:58:39;61506.03;;;-147.04;100.00
39075;BME280;24826;52.070;20.970;2022-10-22T02:07:22;61512.00;;;-147.04;100.00
39075;BME280;24826;52.070;20.970;2022-10-22T02:10:09;61519.94;;;-147.04;100.00
39075;BME280;24826;52.070;20.970;2022-10-22T02:12:56;61515.97;;;-147.04;100.00
39075;BME280;24826;52.070;20.970;2022-10-22T02:15:45;61498.09;;;-147.04;100.00
39075;BME280;24826;52.070;20.970;2022-10-22T02:18:33;61508.03;;;-147.04;100.00
39075;BME280;24826;52.070;20.970;2022-10-22T02:21:18;61508.03;;;-147.04;100.00
39075;BME280;24826;52.070;20.970;2022-10-22T02:24:03;61523.94;;;-147.04;100.00
39075;BME280;24826;52.070;20.970;2022-10-22T02:35:33;61502.06;;;-147.04;100.00
39075;BME280;24826;52.070;20.970;2022-10-22T02:38:18;61521.94;;;-147.04;100.00
39075;BME280;24826;52.070;20.970;2022-10-22T02:41:03;61460.31;;;-147.04;100.00
39075;BME280;24826;52.070;20.970;2022-10-22T02:43:51;61527.91;;;-147.04;100.00
39075;BME280;24826;52.070;20.970;2022-10-22T02:46:38;61515.97;;;-147.04;100.00
39075;BME280;24826;52.070;20.970;2022-10-22T02:49:23;61730.75;;;-147.04;100.00
39075;BME280;24826;52.070;20.970;2022-10-22T02:52:07;61512.00;;;-147.04;100.00
39075;BME280;24826;52.070;20.970;2022-10-22T02:54:51;61523.94;;;-147.04;100.00
39075;BME280;24826;52.070;20.970;2022-10-22T02:57:36;61508.03;;;-147.04;100.00
39075;BME280;24826;52.070;20.970;2022-10-22T03:00:21;61535.88;;;-147.04;100.00
39075;BME280;24826;52.070;20.970;2022-10-22T03:03:05;61517.97;;;-147.04;100.00
39075;BME280;24826;52.070;20.970;2022-10-22T03:05:50;61525.91;;;-147.04;100.00
39075;BME280;24826;52.070;20.970;2022-10-22T03:08:34;61535.88;;;-147.04;100.00
39075;BME280;24826;52.070;20.970;2022-10-22T03:11:18;61551.78;;;-147.04;100.00
39075;BME280;24826;52.070;20.970;2022-10-22T03:14:03;61533.88;;;-147.04;100.00
39075;BME280;24826;52.070;20.970;2022-10-22T03:16:48;61514.00;;;-147.04;100.00
39075;BME280;24826;52.070;20.970;2022-10-22T03:19:32;61527.91;;;-147.04;100.00
39075;BME280;24826;52.070;20.970;2022-10-22T03:22:22;61545.81;;;-147.04;100.00
39075;BME280;24826;52.070;20.970;2022-10-22T03:25:12;61531.88;;;-147.04;100.00
39075;BME280;24826;52.070;20.970;2022-10-22T03:28:02;61589.56;;;-147.04;100.00
39075;BME280;24826;52.070;20.970;2022-10-22T03:30:48;61563.69;;;-147.04;100.00
39075;BME280;24826;52.070;20.970;2022-10-22T03:33:32;61671.09;;;-147.04;100.00
39075;BME280;24826;52.070;20.970;2022-10-22T03:36:16;61543.81;;;-147.04;100.00
39075;BME280;24826;52.070;20.970;2022-10-22T03:39:01;61523.94;;;-147.04;100.00
39075;BME280;24826;52.070;20.970;2022-10-22T03:41:47;61591.53;;;-147.04;100.00
39075;BME280;24826;52.070;20.970;2022-10-22T03:44:34;61555.75;;;-147.04;100.00
39075;BME280;24826;52.070;20.970;2022-10-22T03:47:19;61535.88;;;-147.04;100.00
39075;BME280;24826;52.070;20.970;2022-10-22T03:50:07;61551.78;;;-147.04;100.00
39075;BME280;24826;52.070;20.970;2022-10-22T03:52:52;61527.91;;;-147.04;100.00
39075;BME280;24826;52.070;20.970;2022-10-22T03:55:37;61571.66;;;-147.04;100.00
39075;BME280;24826;52.070;20.970;2022-10-22T03:58:21;61543.81;;;-147.04;100.00
39075;BME280;24826;52.070;20.970;2022-10-22T04:01:12;61551.78;;;-147.04;100.00
39075;BME280;24826;52.070;20.970;2022-10-22T04:03:56;61539.84;;;-147.04;100.00
39075;BME280;24826;52.070;20.970;2022-10-22T04:06:41;61559.72;;;-147.04;100.00
39075;BME280;24826;52.070;20.970;2022-10-22T04:09:25;61571.66;;;-147.04;100.00
39075;BME280;24826;52.070;20.970;2022-10-22T04:12:10;61508.03;;;-147.04;100.00
39075;BME280;24826;52.070;20.970;2022-10-22T04:14:54;61527.91;;;-147.04;100.00
39075;BME280;24826;52.070;20.970;2022-10-22T04:17:39;61575.63;;;-147.04;100.00
39075;BME280;24826;52.070;20.970;2022-10-22T04:20:23;61565.69;;;-147.04;100.00
39075;BME280;24826;52.070;20.970;2022-10-22T04:23:08;61559.72;;;-147.04;100.00
39075;BME280;24826;52.070;20.970;2022-10-22T04:25:59;61533.88;;;-147.04;100.00
39075;BME280;24826;52.070;20.970;2022-10-22T04:28:46;61673.06;;;-147.04;100.00
39075;BME280;24826;52.070;20.970;2022-10-22T04:31:30;61573.66;;;-147.04;100.00
39075;BME280;24826;52.070;20.970;2022-10-22T04:34:15;61575.63;;;-147.04;100.00
39075;BME280;24826;52.070;20.970;2022-10-22T04:36:59;61583.59;;;-147.04;100.00
39075;BME280;24826;52.070;20.970;2022-10-22T04:39:43;61559.72;;;-147.04;100.00
39075;BME280;24826;52.070;20.970;2022-10-22T04:42:28;61555.75;;;-147.04;100.00
39075;BME280;24826;52.070;20.970;2022-10-22T04:45:12;61571.66;;;-147.04;100.00
39075;BME280;24826;52.070;20.970;2022-10-22T04:47:58;61559.72;;;-147.04;100.00
39075;BME280;24826;52.070;20.970;2022-10-22T04:50:43;61585.56;;;-147.04;100.00
39075;BME280;24826;52.070;20.970;2022-10-22T04:53:27;61563.69;;;-147.04;100.00
39075;BME280;24826;52.070;20.970;2022-10-22T04:56:26;61561.72;;;-147.04;100.00
39075;BME280;24826;52.070;20.970;2022-10-22T04:59:11;61577.63;;;-147.04;100.00
39075;BME280;24826;52.070;20.970;2022-10-22T05:01:56;61555.75;;;-147.04;100.00
39075;BME280;24826;52.070;20.970;2022-10-22T05:04:42;61555.75;;;-147.04;100.00
39075;BME280;24826;52.070;20.970;2022-10-22T05:07:27;61531.88;;;-147.04;100.00
39075;BME280;24826;52.070;20.970;2022-10-22T05:10:11;61539.84;;;-147.04;100.00
39075;BME280;24826;52.070;20.970;2022-10-22T05:12:56;61611.44;;;-147.04;100.00
39075;BME280;24826;52.070;20.970;2022-10-22T05:15:40;61569.66;;;-147.04;100.00
39075;BME280;24826;52.070;20.970;2022-10-22T05:18:25;61527.91;;;-147.04;100.00
39075;BME280;24826;52.070;20.970;2022-10-22T05:21:14;61543.81;;;-147.04;100.00
39075;BME280;24826;52.070;20.970;2022-10-22T05:23:59;61525.91;;;-147.04;100.00
39075;BME280;24826;52.070;20.970;2022-10-22T05:26:44;61559.72;;;-147.04;100.00
39075;BME280;24826;52.070;20.970;2022-10-22T05:29:28;61525.91;;;-147.04;100.00
39075;BME280;24826;52.070;20.970;2022-10-22T05:32:12;61595.53;;;-147.04;100.00
39075;BME280;24826;52.070;20.970;2022-10-22T05:34:57;61547.78;;;-147.04;100.00
39075;BME280;24826;52.070;20.970;2022-10-22T05:37:41;61523.94;;;-147.04;100.00
39075;BME280;24826;52.070;20.970;2022-10-22T05:40:26;61539.84;;;-147.04;100.00
39075;BME280;24826;52.070;20.970;2022-10-22T05:43:10;61539.84;;;-147.04;100.00
39075;BME280;24826;52.070;20.970;2022-10-22T05:45:55;61555.75;;;-147.04;100.00
39075;BME280;24826;52.070;20.970;2022-10-22T05:48:40;61551.78;;;-147.04;100.00
39075;BME280;24826;52.070;20.970;2022-10-22T05:51:26;61543.81;;;-147.04;100.00
39075;BME280;24826;52.070;20.970;2022-10-22T05:54:18;61571.66;;;-147.04;100.00
39075;BME280;24826;52.070;20.970;2022-10-22T05:57:03;61583.59;;;-147.04;100.00
39075;BME280;24826;52.070;20.970;2022-10-22T05:59:47;61563.69;;;-147.04;100.00
39075;BME280;24826;52.070;20.970;2022-10-22T06:02:32;61563.69;;;-147.04;100.00
39075;BME280;24826;52.070;20.970;2022-10-22T06:05:16;61579.59;;;-147.04;100.00
39075;BME280;24826;52.070;20.970;2022-10-22T06:08:01;61573.66;;;-147.04;100.00
39075;BME280;24826;52.070;20.970;2022-10-22T06:10:45;61591.53;;;-147.04;100.00
39075;BME280;24826;52.070;20.970;2022-10-22T06:13:29;61565.69;;;-147.04;100.00
39075;BME280;24826;52.070;20.970;2022-10-22T06:16:15;61583.59;;;-147.04;100.00
39075;BME280;24826;52.070;20.970;2022-10-22T06:19:00;61567.69;;;-147.04;100.00
39075;BME280;24826;52.070;20.970;2022-10-22T06:21:44;61601.47;;;-147.04;100.00
39075;BME280;24826;52.070;20.970;2022-10-22T06:24:29;61607.44;;;-147.04;100.00
39075;BME280;24826;52.070;20.970;2022-10-22T06:27:14;61591.53;;;-147.04;100.00
39075;BME280;24826;52.070;20.970;2022-10-22T06:29:59;61567.69;;;-147.04;100.00
39075;BME280;24826;52.070;20.970;2022-10-22T06:32:43;61647.22;;;-147.04;100.00
39075;BME280;24826;52.070;20.970;2022-10-22T06:35:28;61575.63;;;-147.04;100.00
39075;BME280;24826;52.070;20.970;2022-10-22T06:38:12;61577.63;;;-147.04;100.00
39075;BME280;24826;52.070;20.970;2022-10-22T06:41:01;61569.66;;;-147.04;100.00
39075;BME280;24826;52.070;20.970;2022-10-22T06:43:46;61603.47;;;-147.04;100.00
39075;BME280;24826;52.070;20.970;2022-10-22T06:46:30;61583.59;;;-147.04;100.00
39075;BME280;24826;52.070;20.970;2022-10-22T06:49:15;61585.56;;;-147.04;100.00
39075;BME280;24826;52.070;20.970;2022-10-22T06:52:00;61573.66;;;-147.04;100.00
39075;BME280;24826;52.070;20.970;2022-10-22T06:54:44;61605.47;;;-147.04;100.00
39075;BME280;24826;52.070;20.970;2022-10-22T06:57:29;61587.56;;;-147.04;100.00
39075;BME280;24826;52.070;20.970;2022-10-22T07:00:14;61577.63;;;-147.04;100.00
39075;BME280;24826;52.070;20.970;2022-10-22T07:02:58;61559.72;;;-147.04;100.00
39075;BME280;24826;52.070;20.970;2022-10-22T07:05:42;61573.66;;;-147.04;100.00
39075;BME280;24826;52.070;20.970;2022-10-22T07:08:28;61583.59;;;-147.04;100.00
39075;BME280;24826;52.070;20.970;2022-10-22T07:11:15;61575.63;;;-147.04;100.00
39075;BME280;24826;52.070;20.970;2022-10-22T07:14:00;61625.34;;;-147.04;100.00
39075;BME280;24826;52.070;20.970;2022-10-22T07:16:44;61577.63;;;-147.04;100.00
39075;BME280;24826;52.070;20.970;2022-10-22T07:19:30;61603.47;;;-147.04;100.00
39075;BME280;24826;52.070;20.970;2022-10-22T07:22:14;61589.56;;;-147.04;100.00
39075;BME280;24826;52.070;20.970;2022-10-22T07:24:59;61579.59;;;-147.04;100.00
39075;BME280;24826;52.070;20.970;2022-10-22T07:27:43;61595.53;;;-147.04;100.00
39075;BME280;24826;52.070;20.970;2022-10-22T07:30:28;61565.69;;;-147.04;100.00
39075;BME280;24826;52.070;20.970;2022-10-22T07:33:12;61585.56;;;-147.04;100.00
39075;BME280;24826;52.070;20.970;2022-10-22T07:35:58;61577.63;;;-147.04;100.00
39075;BME280;24826;52.070;20.970;2022-10-22T07:38:48;61571.66;;;-147.04;100.00
39075;BME280;24826;52.070;20.970;2022-10-22T07:41:32;61599.50;;;-147.04;100.00
39075;BME280;24826;52.070;20.970;2022-10-22T07:44:17;61587.56;;;-147.04;100.00
39075;BME280;24826;52.070;20.970;2022-10-22T07:47:01;61559.72;;;-147.04;100.00
39075;BME280;24826;52.070;20.970;2022-10-22T07:49:45;61619.38;;;-147.04;100.00
39075;BME280;24826;52.070;20.970;2022-10-22T07:52:30;61587.56;;;-147.04;100.00
39075;BME280;24826;52.070;20.970;2022-10-22T07:55:14;61575.63;;;-147.04;100.00
39075;BME280;24826;52.070;20.970;2022-10-22T07:57:59;61571.66;;;-147.04;100.00
39075;BME280;24826;52.070;20.970;2022-10-22T08:00:44;61599.50;;;-147.04;100.00
39075;BME280;24826;52.070;20.970;2022-10-22T08:03:30;61611.44;;;-147.04;100.00
39075;BME280;24826;52.070;20.970;2022-10-22T08:06:15;61613.41;;;-147.04;100.00
39075;BME280;24826;52.070;20.970;2022-10-22T08:08:59;61563.69;;;-147.04;100.00
39075;BME280;24826;52.070;20.970;2022-10-22T08:11:43;61603.47;;;-147.04;100.00
39075;BME280;24826;52.070;20.970;2022-10-22T08:14:29;61601.47;;;-147.04;100.00
39075;BME280;24826;52.070;20.970;2022-10-22T08:17:14;61579.59;;;-147.04;100.00
39075;BME280;24826;52.070;20.970;2022-10-22T08:19:58;61629.31;;;-147.04;100.00
39075;BME280;24826;52.070;20.970;2022-10-22T08:22:42;61603.47;;;-147.04;100.00
39075;BME280;24826;52.070;20.970;2022-10-22T08:25:27;61726.75;;;-147.04;100.00
39075;BME280;24826;52.070;20.970;2022-10-22T08:28:12;61623.34;;;-147.04;100.00
39075;BME280;24826;52.070;20.970;2022-10-22T08:30:56;61611.44;;;-147.04;100.00
39075;BME280;24826;52.070;20.970;2022-10-22T08:33:40;61641.25;;;-147.04;100.00
39075;BME280;24826;52.070;20.970;2022-10-22T08:36:26;61617.38;;;-147.04;100.00
39075;BME280;24826;52.070;20.970;2022-10-22T08:39:10;61659.16;;;-147.04;100.00
39075;BME280;24826;52.070;20.970;2022-10-22T08:50:57;61635.28;;;-147.04;100.00
39075;BME280;24826;52.070;20.970;2022-10-22T09:06:15;61623.34;;;-147.04;100.00
39075;BME280;24826;52.070;20.970;2022-10-22T09:09:10;61647.22;;;-147.04;100.00
39075;BME280;24826;52.070;20.970;2022-10-22T09:11:57;61643.25;;;-147.04;100.00
39075;BME280;24826;52.070;20.970;2022-10-22T09:14:42;61627.34;;;-147.04;100.00
39075;BME280;24826;52.070;20.970;2022-10-22T09:20:26;61641.25;;;-147.04;100.00
39075;BME280;24826;52.070;20.970;2022-10-22T09:23:22;61647.22;;;-147.04;100.00
39075;BME280;24826;52.070;20.970;2022-10-22T09:26:13;61657.16;;;-147.04;100.00
39075;BME280;24826;52.070;20.970;2022-10-22T09:29:00;61643.25;;;-147.04;100.00
39075;BME280;24826;52.070;20.970;2022-10-22T09:31:44;61659.16;;;-147.04;100.00
39075;BME280;24826;52.070;20.970;2022-10-22T09:34:29;61667.09;;;-147.04;100.00
39075;BME280;24826;52.070;20.970;2022-10-22T09:37:16;61770.50;;;-147.04;100.00
39075;BME280;24826;52.070;20.970;2022-10-22T09:40:04;61651.19;;;-147.04;100.00
39075;BME280;24826;52.070;20.970;2022-10-22T09:42:49;61633.31;;;-147.04;100.00
39075;BME280;24826;52.070;20.970;2022-10-22T09:45:34;61643.25;;;-147.04;100.00
39075;BME280;24826;52.070;20.970;2022-10-22T09:48:20;61651.19;;;-147.04;100.00
39075;BME280;24826;52.070;20.970;2022-10-22T09:51:22;61643.25;;;-147.04;100.00
39075;BME280;24826;52.070;20.970;2022-10-22T09:54:15;61647.22;;;-147.04;100.00
39075;BME280;24826;52.070;20.970;2022-10-22T09:57:13;61627.34;;;-147.04;100.00
39075;BME280;24826;52.070;20.970;2022-10-22T09:59:57;61653.19;;;-147.04;100.00
39075;BME280;24826;52.070;20.970;2022-10-22T10:02:42;61647.22;;;-147.04;100.00
39075;BME280;24826;52.070;20.970;2022-10-22T10:05:30;61659.16;;;-147.04;100.00
39075;BME280;24826;52.070;20.970;2022-10-22T10:08:16;61615.41;;;-147.04;100.00
39075;BME280;24826;52.070;20.970;2022-10-22T10:11:18;61635.28;;;-147.04;100.00
39075;BME280;24826;52.070;20.970;2022-10-22T10:14:15;61635.28;;;-147.04;100.00
39075;BME280;24826;52.070;20.970;2022-10-22T10:23:32;61649.22;;;-147.04;100.00
39075;BME280;24826;52.070;20.970;2022-10-22T10:26:42;61615.41;;;-147.04;100.00
39075;BME280;24826;52.070;20.970;2022-10-22T10:29:35;61641.25;;;-147.04;100.00
39075;BME280;24826;52.070;20.970;2022-10-22T10:35:28;61635.28;;;-147.04;100.00
39075;BME280;24826;52.070;20.970;2022-10-22T10:38:37;61657.16;;;-147.04;100.00
39075;BME280;24826;52.070;20.970;2022-10-22T10:53:23;61635.28;;;-147.04;100.00
39075;BME280;24826;52.070;20.970;2022-10-22T10:59:25;61639.25;;;-147.04;100.00
39075;BME280;24826;52.070;20.970;2022-10-22T11:05:39;61663.13;;;-147.04;100.00
39075;BME280;24826;52.070;20.970;2022-10-22T11:08:35;61649.22;;;-147.04;100.00
39075;BME280;24826;52.070;20.970;2022-10-22T11:11:26;61671.09;;;-147.04;100.00
39075;BME280;24826;52.070;20.970;2022-10-22T11:17:11;61667.09;;;-147.04;100.00
39075;BME280;24826;52.070;20.970;2022-10-22T11:20:19;61643.25;;;-147.04;100.00
39075;BME280;24826;52.070;20.970;2022-10-22T11:23:08;61645.22;;;-147.04;100.00
39075;BME280;24826;52.070;20.970;2022-10-22T11:25:54;61643.25;;;-147.04;100.00
39075;BME280;24826;52.070;20.970;2022-10-22T11:28:45;61694.94;;;-147.04;100.00
39075;BME280;24826;52.070;20.970;2022-10-22T11:31:31;61655.16;;;-147.04;100.00
39075;BME280;24826;52.070;20.970;2022-10-22T11:34:23;61667.09;;;-147.04;100.00
39075;BME280;24826;52.070;20.970;2022-10-22T11:37:09;61645.22;;;-147.04;100.00
39075;BME280;24826;52.070;20.970;2022-10-22T11:42:56;61673.06;;;-147.04;100.00
39075;BME280;24826;52.070;20.970;2022-10-22T11:45:41;61685.00;;;-147.04;100.00
39075;BME280;24826;52.070;20.970;2022-10-22T11:48:27;61659.16;;;-147.04;100.00
39075;BME280;24826;52.070;20.970;2022-10-22T11:51:31;61683.00;;;-147.04;100.00
39075;BME280;24826;52.070;20.970;2022-10-22T11:57:28;61687.00;;;-147.04;100.00
39075;BME280;24826;52.070;20.970;2022-10-22T12:00:45;61655.16;;;-147.04;100.00
39075;BME280;24826;52.070;20.970;2022-10-22T12:09:00;61621.38;;;-147.04;100.00
39075;BME280;24826;52.070;20.970;2022-10-22T12:11:49;61665.13;;;-147.04;100.00
39075;BME280;24826;52.070;20.970;2022-10-22T12:14:50;61726.75;;;-147.04;100.00
39075;BME280;24826;52.070;20.970;2022-10-22T12:17:35;61679.03;;;-147.04;100.00
39075;BME280;24826;52.070;20.970;2022-10-22T12:20:24;61651.19;;;-147.04;100.00
39075;BME280;24826;52.070;20.970;2022-10-22T12:23:10;61673.06;;;-147.04;100.00
39075;BME280;24826;52.070;20.970;2022-10-22T12:25:55;61667.09;;;-147.04;100.00
39075;BME280;24826;52.070;20.970;2022-10-22T12:28:40;61669.09;;;-147.04;100.00
39075;BME280;24826;52.070;20.970;2022-10-22T12:31:24;61659.16;;;-147.04;100.00
39075;BME280;24826;52.070;20.970;2022-10-22T12:34:15;61667.09;;;-147.04;100.00
39075;BME280;24826;52.070;20.970;2022-10-22T12:37:03;61653.19;;;-147.04;100.00
39075;BME280;24826;52.070;20.970;2022-10-22T12:39:47;61688.97;;;-147.04;100.00
39075;BME280;24826;52.070;20.970;2022-10-22T12:42:31;61694.94;;;-147.04;100.00
39075;BME280;24826;52.070;20.970;2022-10-22T12:45:16;61738.69;;;-147.04;100.00
39075;BME280;24826;52.070;20.970;2022-10-22T12:48:03;61679.03;;;-147.04;100.00
39075;BME280;24826;52.070;20.970;2022-10-22T12:50:54;61687.00;;;-147.04;100.00
39075;BME280;24826;52.070;20.970;2022-10-22T12:53:47;61669.09;;;-147.04;100.00
39075;BME280;24826;52.070;20.970;2022-10-22T12:56:33;61696.94;;;-147.04;100.00
39075;BME280;24826;52.070;20.970;2022-10-22T12:59:24;61696.94;;;-147.04;100.00
39075;BME280;24826;52.070;20.970;2022-10-22T13:02:20;61738.69;;;-147.04;100.00
39075;BME280;24826;52.070;20.970;2022-10-22T13:05:24;61690.97;;;-147.04;100.00
39075;BME280;24826;52.070;20.970;2022-10-22T13:08:12;61694.94;;;-147.04;100.00
39075;BME280;24826;52.070;20.970;2022-10-22T13:11:07;61657.16;;;-147.04;100.00
39075;BME280;24826;52.070;20.970;2022-10-22T13:14:00;61657.16;;;-147.04;100.00
39075;BME280;24826;52.070;20.970;2022-10-22T13:17:02;61687.00;;;-147.04;100.00
39075;BME280;24826;52.070;20.970;2022-10-22T13:22:39;61685.00;;;-147.04;100.00
39075;BME280;24826;52.070;20.970;2022-10-22T13:25:27;61710.84;;;-147.04;100.00
39075;BME280;24826;52.070;20.970;2022-10-22T13:31:00;61671.09;;;-147.04;100.00
39075;BME280;24826;52.070;20.970;2022-10-22T13:33:51;61657.16;;;-147.04;100.00
39075;BME280;24826;52.070;20.970;2022-10-22T13:36:37;61706.88;;;-147.04;100.00
39075;BME280;24826;52.070;20.970;2022-10-22T13:39:22;61718.81;;;-147.04;100.00
39075;BME280;24826;52.070;20.970;2022-10-22T13:42:11;61681.03;;;-147.04;100.00
39075;BME280;24826;52.070;20.970;2022-10-22T13:44:55;61687.00;;;-147.04;100.00
39075;BME280;24826;52.070;20.970;2022-10-22T13:47:41;61714.84;;;-147.04;100.00
39075;BME280;24826;52.070;20.970;2022-10-22T13:50:28;61683.00;;;-147.04;100.00
39075;BME280;24826;52.070;20.970;2022-10-22T13:53:18;61784.44;;;-147.04;100.00
39075;BME280;24826;52.070;20.970;2022-10-22T13:56:03;61671.09;;;-147.04;100.00
39075;BME280;24826;52.070;20.970;2022-10-22T13:58:49;61673.06;;;-147.04;100.00
39075;BME280;24826;52.070;20.970;2022-10-22T14:01:33;61655.16;;;-147.04;100.00
39075;BME280;24826;52.070;20.970;2022-10-22T14:04:17;61716.81;;;-147.04;100.00
39075;BME280;24826;52.070;20.970;2022-10-22T14:07:02;61667.09;;;-147.04;100.00
39075;BME280;24826;52.070;20.970;2022-10-22T14:09:46;61690.97;;;-147.04;100.00
39075;BME280;24826;52.070;20.970;2022-10-22T14:12:30;61685.00;;;-147.04;100.00
39075;BME280;24826;52.070;20.970;2022-10-22T14:15:16;61683.00;;;-147.04;100.00
39075;BME280;24826;52.070;20.970;2022-10-22T14:18:02;61677.03;;;-147.04;100.00
39075;BME280;24826;52.070;20.970;2022-10-22T14:20:47;61679.03;;;-147.04;100.00
39075;BME280;24826;52.070;20.970;2022-10-22T14:23:33;61655.16;;;-147.04;100.00
39075;BME280;24826;52.070;20.970;2022-10-22T14:26:24;61681.03;;;-147.04;100.00
39075;BME280;24826;52.070;20.970;2022-10-22T14:29:11;61694.94;;;-147.04;100.00
39075;BME280;24826;52.070;20.970;2022-10-22T14:31:55;61688.97;;;-147.04;100.00
39075;BME280;24826;52.070;20.970;2022-10-22T14:34:40;61706.88;;;-147.04;100.00
39075;BME280;24826;52.070;20.970;2022-10-22T14:37:24;61702.91;;;-147.04;100.00
39075;BME280;24826;52.070;20.970;2022-10-22T14:40:12;61643.25;;;-147.04;100.00
39075;BME280;24826;52.070;20.970;2022-10-22T14:42:57;61720.78;;;-147.04;100.00
39075;BME280;24826;52.070;20.970;2022-10-22T14:45:41;61681.03;;;-147.04;100.00
39075;BME280;24826;52.070;20.970;2022-10-22T14:48:26;61685.00;;;-147.04;100.00
39075;BME280;24826;52.070;20.970;2022-10-22T14:51:16;61698.91;;;-147.04;100.00
39075;BME280;24826;52.070;20.970;2022-10-22T14:54:01;61702.91;;;-147.04;100.00
39075;BME280;24826;52.070;20.970;2022-10-22T14:56:45;61714.84;;;-147.04;100.00
39075;BME280;24826;52.070;20.970;2022-10-22T14:59:30;61692.97;;;-147.04;100.00
39075;BME280;24826;52.070;20.970;2022-10-22T15:02:14;61679.03;;;-147.04;100.00
39075;BME280;24826;52.070;20.970;2022-10-22T15:04:58;61722.78;;;-147.04;100.00
39075;BME280;24826;52.070;20.970;2022-10-22T15:07:43;61696.94;;;-147.04;100.00
39075;BME280;24826;52.070;20.970;2022-10-22T15:10:28;61698.91;;;-147.04;100.00
39075;BME280;24826;52.070;20.970;2022-10-22T15:13:12;61726.75;;;-147.04;100.00
39075;BME280;24826;52.070;20.970;2022-10-22T15:15:57;61766.53;;;-147.04;100.00
39075;BME280;24826;52.070;20.970;2022-10-22T15:18:42;61724.78;;;-147.04;100.00
39075;BME280;24826;52.070;20.970;2022-10-22T15:21:27;61706.88;;;-147.04;100.00
39075;BME280;24826;52.070;20.970;2022-10-22T15:24:11;61736.72;;;-147.04;100.00
39075;BME280;24826;52.070;20.970;2022-10-22T15:26:55;61690.97;;;-147.04;100.00
39075;BME280;24826;52.070;20.970;2022-10-22T15:29:41;61694.94;;;-147.04;100.00
39075;BME280;24826;52.070;20.970;2022-10-22T15:32:26;61690.97;;;-147.04;100.00
39075;BME280;24826;52.070;20.970;2022-10-22T15:35:12;61702.91;;;-147.04;100.00
39075;BME280;24826;52.070;20.970;2022-10-22T15:37:56;61698.91;;;-147.04;100.00
39075;BME280;24826;52.070;20.970;2022-10-22T15:40:41;61698.91;;;-147.04;100.00
39075;BME280;24826;52.070;20.970;2022-10-22T15:43:26;61696.94;;;-147.04;100.00
39075;BME280;24826;52.070;20.970;2022-10-22T15:46:14;61700.91;;;-147.04;100.00